createdAt,value
2023-05-18T00:01:16.841Z,102612.56
2023-05-18T00:03:43.632Z,102576.34
2023-05-18T00:06:10.564Z,102576.78
2023-05-18T00:08:38.645Z,102618.25
2023-05-18T00:11:07.257Z,102609.16
2023-05-18T00:13:33.859Z,102615.50
2023-05-18T00:16:01.285Z,102601.75
2023-05-18T00:18:28.251Z,102570.19
2023-05-18T00:20:59.012Z,102608.72
2023-05-18T00:23:33.137Z,102626.16
2023-05-18T00:26:00.871Z,102615.75
2023-05-18T00:28:28.406Z,102616.38
2023-05-18T00:30:55.816Z,102607.16
2023-05-18T00:33:23.326Z,102626.66
2023-05-18T00:35:50.672Z,102626.41
2023-05-18T00:38:17.842Z,102620.38
2023-05-18T00:40:44.754Z,102623.41
2023-05-18T00:43:11.672Z,102631.00
2023-05-18T00:45:38.530Z,102627.41
2023-05-18T00:48:05.479Z,102616.59
2023-05-18T00:50:32.350Z,102628.69
2023-05-18T00:52:59.666Z,102636.41
2023-05-18T00:55:28.552Z,102626.34
2023-05-18T00:57:56.901Z,102625.16
2023-05-18T01:00:23.898Z,102632.97
2023-05-18T01:02:51.326Z,102630.94
2023-05-18T01:05:30.285Z,102613.03
2023-05-18T01:07:57.956Z,102616.78
2023-05-18T01:10:24.806Z,102613.34
2023-05-18T01:12:51.240Z,102628.53
2023-05-18T01:15:33.975Z,102607.75
2023-05-18T01:18:15.174Z,102634.44
2023-05-18T01:20:48.990Z,102615.47
2023-05-18T01:23:54.991Z,102578.22
2023-05-18T01:26:42.662Z,102628.41
2023-05-18T01:29:12.939Z,102617.28
2023-05-18T01:31:42.169Z,102632.84
2023-05-18T01:34:11.789Z,102609.16
2023-05-18T01:36:38.360Z,102621.75
2023-05-18T01:39:05.417Z,102618.31
2023-05-18T01:41:37.084Z,102642.44
2023-05-18T01:44:09.530Z,102636.16
2023-05-18T01:46:59.360Z,102636.75
2023-05-18T01:49:53.198Z,102644.75
2023-05-18T01:52:44.622Z,102642.16
2023-05-18T01:55:18.722Z,102545.41
2023-05-18T01:57:48.357Z,102641.31
2023-05-18T02:00:16.783Z,102566.00
2023-05-18T02:02:43.998Z,102617.63
2023-05-18T02:05:13.482Z,102618.22
2023-05-18T02:07:47.475Z,102643.78
2023-05-18T02:10:14.805Z,102645.41
2023-05-18T02:12:41.551Z,102609.28
2023-05-18T02:15:08.598Z,102641.81
2023-05-18T02:17:38.152Z,102635.78
2023-05-18T02:20:10.252Z,102619.28
2023-05-18T02:22:37.136Z,102587.75
2023-05-18T02:25:05.115Z,102638.38
2023-05-18T02:27:36.098Z,102639.22
2023-05-18T02:30:05.169Z,102642.84
2023-05-18T02:35:09.087Z,102635.97
2023-05-18T02:37:39.840Z,102645.69
2023-05-18T02:40:16.314Z,102640.44
2023-05-18T02:42:42.920Z,102612.13
2023-05-18T02:45:09.708Z,102643.97
2023-05-18T02:47:36.317Z,102647.59
2023-05-18T02:50:03.033Z,102637.88
2023-05-18T02:52:29.539Z,102641.38
2023-05-18T02:54:56.237Z,102637.19
2023-05-18T02:57:22.837Z,102627.09
2023-05-18T02:59:49.401Z,102653.84
2023-05-18T03:02:16.505Z,102645.00
2023-05-18T03:04:43.216Z,102648.53
2023-05-18T03:07:10.444Z,102626.31
2023-05-18T03:09:37.349Z,102640.78
2023-05-18T03:12:04.268Z,102649.56
2023-05-18T03:14:30.897Z,102618.78
2023-05-18T03:16:57.917Z,102642.03
2023-05-18T03:19:27.032Z,102607.53
2023-05-18T03:21:53.679Z,102654.03
2023-05-18T03:24:20.458Z,102585.22
2023-05-18T03:26:47.062Z,102650.03
2023-05-18T03:29:13.741Z,102627.63
2023-05-18T03:31:41.017Z,102660.31
2023-05-18T03:34:07.688Z,102659.34
2023-05-18T03:36:35.596Z,102657.66
2023-05-18T03:39:02.426Z,102662.81
2023-05-18T03:41:29.960Z,102661.84
2023-05-18T03:43:56.623Z,102652.59
2023-05-18T03:46:23.555Z,102664.50
2023-05-18T03:48:50.588Z,102665.28
2023-05-18T03:51:17.136Z,102672.06
2023-05-18T03:53:43.979Z,102667.47
2023-05-18T03:56:10.587Z,102669.97
2023-05-18T03:58:37.098Z,102659.50
2023-05-18T04:01:04.524Z,102669.63
2023-05-18T04:03:31.352Z,102673.06
2023-05-18T04:05:57.916Z,102642.75
2023-05-18T04:08:25.765Z,102664.75
2023-05-18T04:10:52.544Z,102675.06
2023-05-18T04:13:19.092Z,102672.59
2023-05-18T04:15:46.066Z,102675.66
2023-05-18T04:18:13.665Z,102660.97
2023-05-18T04:20:41.641Z,102676.59
2023-05-18T04:23:10.073Z,102648.97
2023-05-18T04:25:39.629Z,102664.41
2023-05-18T04:28:06.138Z,102681.38
2023-05-18T04:30:32.993Z,102687.56
2023-05-18T04:33:00.567Z,102677.94
2023-05-18T04:35:27.986Z,102691.59
2023-05-18T04:37:54.690Z,102700.94
2023-05-18T04:40:21.410Z,102702.31
2023-05-18T04:42:48.942Z,102707.47
2023-05-18T04:45:17.207Z,102705.44
2023-05-18T04:47:46.758Z,102707.84
2023-05-18T04:50:15.203Z,102713.44
2023-05-18T04:52:48.128Z,102717.66
2023-05-18T04:55:16.593Z,102714.72
2023-05-18T04:57:44.847Z,102709.91
2023-05-18T05:00:13.078Z,102679.16
2023-05-18T05:02:40.504Z,102712.31
2023-05-18T05:05:07.583Z,102704.72
2023-05-18T05:07:34.175Z,102726.25
2023-05-18T05:10:00.682Z,102727.78
2023-05-18T05:12:27.131Z,102726.81
2023-05-18T05:14:54.193Z,102721.75
2023-05-18T05:17:20.722Z,102722.19
2023-05-18T05:19:47.367Z,102726.31
2023-05-18T05:22:14.627Z,102733.94
2023-05-18T05:24:41.150Z,102700.47
2023-05-18T05:27:07.616Z,102681.03
2023-05-18T05:29:34.105Z,102721.78
2023-05-18T05:32:01.041Z,102737.13
2023-05-18T05:34:27.656Z,102741.59
2023-05-18T05:36:54.154Z,102741.50
2023-05-18T05:39:20.754Z,102745.91
2023-05-18T05:41:47.236Z,102740.25
2023-05-18T05:44:13.684Z,102747.13
2023-05-18T05:46:40.230Z,102746.81
2023-05-18T05:49:07.181Z,102745.94
2023-05-18T05:51:33.695Z,102751.44
2023-05-18T05:54:00.296Z,102754.72
2023-05-18T05:56:26.808Z,102754.63
2023-05-18T05:58:53.426Z,102754.34
2023-05-18T06:01:19.881Z,102740.41
2023-05-18T06:03:46.488Z,102729.06
2023-05-18T06:06:13.386Z,102768.28
2023-05-18T06:08:40.031Z,102767.94
2023-05-18T06:11:08.232Z,102762.41
2023-05-18T06:13:36.486Z,102771.94
2023-05-18T06:16:03.259Z,102771.84
2023-05-18T06:18:29.862Z,102741.41
2023-05-18T06:20:57.044Z,102772.84
2023-05-18T06:23:23.715Z,102776.75
2023-05-18T06:25:50.263Z,102738.72
2023-05-18T06:28:16.758Z,102774.25
2023-05-18T06:30:43.580Z,102772.84
2023-05-18T06:33:10.275Z,102775.53
2023-05-18T06:35:37.056Z,102776.06
2023-05-18T06:38:03.718Z,102781.84
2023-05-18T06:40:30.193Z,102780.03
2023-05-18T06:42:56.748Z,102793.97
2023-05-18T06:45:23.251Z,102788.72
2023-05-18T06:47:50.059Z,102787.75
2023-05-18T06:50:16.658Z,102792.06
2023-05-18T06:52:44.393Z,102755.72
2023-05-18T06:55:11.063Z,102800.41
2023-05-18T06:57:37.606Z,102807.25
2023-05-18T07:00:07.232Z,102779.94
2023-05-18T07:02:33.837Z,102791.75
2023-05-18T07:05:01.518Z,102771.31
2023-05-18T07:07:28.066Z,102780.41
2023-05-18T07:09:54.969Z,102790.59
2023-05-18T07:12:22.570Z,102789.53
2023-05-18T07:14:49.149Z,102789.09
2023-05-18T07:17:15.708Z,102781.91
2023-05-18T07:19:42.193Z,102728.47
2023-05-18T07:22:08.956Z,102792.50
2023-05-18T07:24:38.520Z,102759.97
2023-05-18T07:27:05.791Z,102770.84
2023-05-18T07:29:32.409Z,102781.75
2023-05-18T07:31:58.983Z,102792.00
2023-05-18T07:34:27.272Z,102778.22
2023-05-18T07:36:53.985Z,102749.00
2023-05-18T07:39:20.739Z,102746.50
2023-05-18T07:41:49.465Z,102802.31
2023-05-18T07:44:16.091Z,102781.69
2023-05-18T07:46:43.535Z,102782.06
2023-05-18T07:49:10.343Z,102793.94
2023-05-18T07:51:36.850Z,102798.75
2023-05-18T07:54:03.525Z,102791.84
2023-05-18T07:56:30.386Z,102785.03
2023-05-18T07:58:57.165Z,102782.06
2023-05-18T08:01:27.522Z,102795.41
2023-05-18T08:03:54.750Z,102787.22
2023-05-18T08:06:21.391Z,102765.47
2023-05-18T08:08:48.152Z,102789.66
2023-05-18T08:11:14.745Z,102728.53
2023-05-18T08:13:41.239Z,102811.41
2023-05-18T08:16:12.293Z,102795.09
2023-05-18T08:18:39.701Z,102793.75
2023-05-18T08:21:10.096Z,102767.47
2023-05-18T08:23:36.956Z,102794.88
2023-05-18T08:26:03.793Z,102728.19
2023-05-18T08:28:31.106Z,102787.41
2023-05-18T08:30:57.939Z,102760.41
2023-05-18T08:33:24.568Z,102782.25
2023-05-18T08:35:51.405Z,102783.91
2023-05-18T08:38:18.098Z,102792.72
2023-05-18T08:41:15.061Z,102777.13
2023-05-18T08:43:45.819Z,102784.81
2023-05-18T08:46:32.008Z,102698.66
2023-05-18T08:48:59.401Z,102786.47
2023-05-18T08:51:29.468Z,102771.59
2023-05-18T08:53:56.911Z,102773.25
2023-05-18T08:56:24.851Z,102777.81
2023-05-18T08:58:56.189Z,102731.09
2023-05-18T09:01:28.506Z,102784.09
2023-05-18T09:03:59.762Z,102781.66
2023-05-18T09:06:28.319Z,102783.91
2023-05-18T09:08:59.402Z,102775.72
2023-05-18T09:11:27.408Z,102771.47
2023-05-18T09:13:55.050Z,102749.03
2023-05-18T09:16:21.742Z,102780.78
2023-05-18T09:18:48.402Z,102779.31
2023-05-18T09:21:14.862Z,102778.19
2023-05-18T09:23:42.218Z,102770.72
2023-05-18T09:26:10.153Z,102776.13
2023-05-18T09:28:41.943Z,102768.56
2023-05-18T09:31:12.687Z,102766.34
2023-05-18T09:33:40.674Z,102713.09
2023-05-18T09:36:08.652Z,102769.97
2023-05-18T09:38:39.458Z,102755.16
2023-05-18T09:41:17.240Z,102762.75
2023-05-18T09:43:45.388Z,102757.78
2023-05-18T09:46:13.360Z,102764.31
2023-05-18T09:48:45.929Z,102775.38
2023-05-18T09:51:16.618Z,102761.16
2023-05-18T09:53:55.468Z,102748.78
2023-05-18T09:56:24.060Z,102756.16
2023-05-18T09:58:50.661Z,102755.00
2023-05-18T10:01:17.329Z,102761.22
2023-05-18T10:03:45.657Z,102752.97
2023-05-18T10:06:17.267Z,102748.03
2023-05-18T10:08:45.499Z,102745.22
2023-05-18T10:11:12.305Z,102755.25
2023-05-18T10:13:38.965Z,102730.84
2023-05-18T10:16:07.793Z,102734.31
2023-05-18T10:18:37.578Z,102724.84
2023-05-18T10:21:07.009Z,102740.97
2023-05-18T10:23:35.693Z,102742.00
2023-05-18T10:26:07.125Z,102687.50
2023-05-18T10:28:38.711Z,102743.66
2023-05-18T10:31:06.688Z,102706.34
2023-05-18T10:33:35.688Z,102735.25
2023-05-18T10:36:04.310Z,102735.47
2023-05-18T10:38:31.786Z,102739.41
2023-05-18T10:41:02.684Z,102740.56
2023-05-18T10:43:29.227Z,102733.06
2023-05-18T10:46:00.885Z,102734.41
2023-05-18T10:48:29.549Z,102748.59
2023-05-18T10:50:58.084Z,102720.94
2023-05-18T10:53:29.835Z,102691.38
2023-05-18T10:55:56.374Z,102736.88
2023-05-18T10:58:26.325Z,102727.47
2023-05-18T11:01:07.706Z,102746.13
2023-05-18T11:03:34.338Z,102714.00
2023-05-18T11:06:08.822Z,102738.78
2023-05-18T11:08:43.610Z,102706.50
2023-05-18T11:11:10.443Z,102738.91
2023-05-18T11:13:43.512Z,102731.88
2023-05-18T11:16:10.449Z,102700.47
2023-05-18T11:18:43.088Z,102730.72
2023-05-18T11:21:24.978Z,102731.69
2023-05-18T11:24:21.279Z,102731.38
2023-05-18T11:26:49.196Z,102729.50
2023-05-18T11:29:36.581Z,102729.91
2023-05-18T11:32:04.865Z,102724.66
2023-05-18T11:34:39.430Z,102721.78
2023-05-18T11:37:10.003Z,102652.34
2023-05-18T11:39:44.920Z,102716.81
2023-05-18T11:42:18.818Z,102710.75
2023-05-18T11:44:52.829Z,102708.94
2023-05-18T11:47:19.805Z,102710.34
2023-05-18T11:49:48.516Z,102704.75
2023-05-18T11:52:25.789Z,102705.72
2023-05-18T11:54:53.257Z,102701.28
2023-05-18T11:57:42.198Z,102716.59
2023-05-18T12:00:15.075Z,102705.03
2023-05-18T12:02:48.503Z,102709.78
2023-05-18T12:05:15.443Z,102708.66
2023-05-18T12:07:42.210Z,102703.91
2023-05-18T12:10:11.629Z,102647.28
2023-05-18T12:12:40.019Z,102703.53
2023-05-18T12:15:08.726Z,102700.06
2023-05-18T12:17:45.680Z,102695.00
2023-05-18T12:20:14.463Z,102694.06
2023-05-18T12:22:42.635Z,102669.94
2023-05-18T12:25:10.029Z,102701.31
2023-05-18T12:27:40.736Z,102688.91
2023-05-18T12:30:38.642Z,102686.66
2023-05-18T12:33:06.849Z,102687.72
2023-05-18T12:35:33.774Z,102680.16
2023-05-18T12:38:01.412Z,102688.41
2023-05-18T12:40:40.229Z,102686.22
2023-05-18T12:43:06.694Z,102683.47
2023-05-18T12:45:34.268Z,102689.22
2023-05-18T12:48:08.640Z,102680.84
2023-05-18T12:50:37.050Z,102650.28
2023-05-18T12:53:03.555Z,102669.06
2023-05-18T12:55:32.133Z,102679.63
2023-05-18T12:58:02.462Z,102666.09
2023-05-18T13:00:35.675Z,102678.38
2023-05-18T13:03:12.775Z,102665.41
2023-05-18T13:05:44.104Z,102667.72
2023-05-18T13:08:17.117Z,102663.84
2023-05-18T13:10:45.063Z,102659.91
2023-05-18T13:13:15.448Z,102649.94
2023-05-18T13:15:43.968Z,102658.56
2023-05-18T13:18:11.699Z,102644.50
2023-05-18T13:20:50.924Z,102643.50
2023-05-18T13:23:19.679Z,102648.25
2023-05-18T13:25:48.822Z,102638.88
2023-05-18T13:28:17.965Z,102607.97
2023-05-18T13:30:47.106Z,102601.91
2023-05-18T13:33:13.916Z,102629.09
2023-05-18T13:35:42.179Z,102640.63
2023-05-18T13:38:10.063Z,102627.06
2023-05-18T13:40:37.664Z,102630.78
2023-05-18T13:43:06.107Z,102624.34
2023-05-18T13:45:33.093Z,102629.16
2023-05-18T13:47:59.779Z,102627.44
2023-05-18T13:50:26.607Z,102610.47
2023-05-18T13:52:54.553Z,102619.31
2023-05-18T13:55:21.235Z,102617.41
2023-05-18T13:57:47.767Z,102618.94
2023-05-18T14:00:16.060Z,102623.53
2023-05-18T14:02:44.377Z,102611.97
2023-05-18T14:05:12.080Z,102605.84
2023-05-18T14:07:40.245Z,102581.22
2023-05-18T14:10:08.045Z,102608.38
2023-05-18T14:12:34.893Z,102608.72
2023-05-18T14:15:02.119Z,102600.09
2023-05-18T14:17:31.242Z,102608.44
2023-05-18T14:19:57.888Z,102591.44
2023-05-18T14:22:26.220Z,102597.53
2023-05-18T14:24:53.651Z,102590.91
2023-05-18T14:27:22.896Z,102600.75
2023-05-18T14:29:50.835Z,102586.50
2023-05-18T14:32:18.053Z,102600.94
2023-05-18T14:34:44.492Z,102591.44
2023-05-18T14:37:10.901Z,102559.22
2023-05-18T14:39:37.881Z,102587.22
2023-05-18T14:42:05.260Z,102560.06
2023-05-18T14:44:31.898Z,102592.81
2023-05-18T14:46:58.462Z,102589.25
2023-05-18T14:49:24.910Z,102590.59
2023-05-18T14:51:51.428Z,102584.31
2023-05-18T14:54:19.049Z,102588.41
2023-05-18T14:56:45.777Z,102577.34
2023-05-18T14:59:12.456Z,102579.72
2023-05-18T15:01:39.519Z,102577.34
2023-05-18T15:04:06.139Z,102532.91
2023-05-18T15:06:33.396Z,102576.00
2023-05-18T15:08:59.930Z,102578.88
2023-05-18T15:11:26.467Z,102586.50
2023-05-18T15:13:52.946Z,102565.44
2023-05-18T15:16:19.941Z,102581.69
2023-05-18T15:18:47.071Z,102563.63
2023-05-18T15:21:13.736Z,102580.53
2023-05-18T15:23:40.224Z,102556.41
2023-05-18T15:26:08.951Z,102564.88
2023-05-18T15:28:35.972Z,102570.94
2023-05-18T15:31:02.479Z,102558.19
2023-05-18T15:33:28.999Z,102510.75
2023-05-18T15:35:55.662Z,102564.59
2023-05-18T15:38:22.201Z,102563.63
2023-05-18T15:40:50.321Z,102510.56
2023-05-18T15:43:17.216Z,102556.28
2023-05-18T15:45:43.769Z,102560.00
2023-05-18T15:48:10.607Z,102552.91
2023-05-18T15:50:37.235Z,102543.41
2023-05-18T15:53:03.807Z,102526.97
2023-05-18T15:55:30.371Z,102557.88
2023-05-18T15:57:56.853Z,102524.22
2023-05-18T16:00:23.775Z,102529.97
2023-05-18T16:02:50.445Z,102552.97
2023-05-18T16:05:17.075Z,102561.75
2023-05-18T16:07:43.711Z,102521.47
2023-05-18T16:10:10.538Z,102554.19
2023-05-18T16:12:37.129Z,102563.50
2023-05-18T16:15:05.355Z,102560.03
2023-05-18T16:17:31.829Z,102546.63
2023-05-18T16:19:58.413Z,102558.50
2023-05-18T16:22:24.852Z,102551.53
2023-05-18T16:24:51.531Z,102542.63
2023-05-18T16:27:18.065Z,102528.44
2023-05-18T16:29:44.542Z,102545.94
2023-05-18T16:32:11.347Z,102553.81
2023-05-18T16:34:37.829Z,102538.38
2023-05-18T16:37:04.471Z,102540.38
2023-05-18T16:39:30.994Z,102510.63
2023-05-18T16:41:57.513Z,102555.47
2023-05-18T16:44:23.957Z,102552.78
2023-05-18T16:46:50.573Z,102552.28
2023-05-18T16:49:17.394Z,102554.63
2023-05-18T16:51:44.013Z,102547.66
2023-05-18T16:54:10.736Z,102542.63
2023-05-18T16:56:37.295Z,102550.41
2023-05-18T16:59:04.049Z,102544.69
2023-05-18T17:01:31.227Z,102521.06
2023-05-18T17:03:57.912Z,102514.16
2023-05-18T17:06:25.615Z,102522.91
2023-05-18T17:08:57.453Z,102545.13
2023-05-18T17:11:26.924Z,102537.31
2023-05-18T17:13:53.705Z,102552.25
2023-05-18T17:16:22.122Z,102529.13
2023-05-18T17:18:49.026Z,102559.97
2023-05-18T17:21:16.107Z,102548.28
2023-05-18T17:23:42.644Z,102556.72
2023-05-18T17:26:09.186Z,102562.53
2023-05-18T17:28:35.988Z,102557.94
2023-05-18T17:31:02.671Z,102552.38
2023-05-18T17:33:29.195Z,102563.38
2023-05-18T17:35:55.767Z,102561.16
2023-05-18T17:38:22.672Z,102570.00
2023-05-18T17:40:49.210Z,102563.53
2023-05-18T17:43:15.683Z,102561.16
2023-05-18T17:45:42.203Z,102558.09
2023-05-18T17:48:08.872Z,102516.63
2023-05-18T17:50:37.632Z,102564.78
2023-05-18T17:53:04.915Z,102568.78
2023-05-18T17:55:31.956Z,102540.97
2023-05-18T17:58:01.002Z,102571.22
2023-05-18T18:00:27.668Z,102564.75
2023-05-18T18:02:55.140Z,102566.31
2023-05-18T18:05:22.147Z,102561.56
2023-05-18T18:07:48.629Z,102561.75
2023-05-18T18:10:15.225Z,102553.63
2023-05-18T18:12:42.661Z,102553.78
2023-05-18T18:15:10.048Z,102496.25
2023-05-18T18:17:36.651Z,102523.75
2023-05-18T18:20:05.634Z,102568.38
2023-05-18T18:22:33.119Z,102565.63
2023-05-18T18:25:01.578Z,102572.91
2023-05-18T18:27:28.007Z,102572.72
2023-05-18T18:29:54.813Z,102567.91
2023-05-18T18:32:21.294Z,102556.94
2023-05-18T18:34:47.709Z,102576.00
2023-05-18T18:37:14.158Z,102574.19
2023-05-18T18:39:40.756Z,102567.66
2023-05-18T18:42:07.318Z,102524.59
2023-05-18T18:44:33.763Z,102528.38
2023-05-18T18:47:00.254Z,102570.81
2023-05-18T18:49:26.830Z,102534.66
2023-05-18T18:51:53.599Z,102547.81
2023-05-18T18:54:20.136Z,102577.09
2023-05-18T18:56:46.638Z,102578.75
2023-05-18T18:59:13.102Z,102548.78
2023-05-18T19:01:39.762Z,102558.31
2023-05-18T19:04:06.342Z,102578.63
2023-05-18T19:06:34.431Z,102595.97
2023-05-18T19:09:00.890Z,102528.44
2023-05-18T19:11:27.316Z,102582.78
2023-05-18T19:13:53.852Z,102593.41
2023-05-18T19:16:21.525Z,102603.97
2023-05-18T19:18:48.317Z,102590.00
2023-05-18T19:21:15.068Z,102604.25
2023-05-18T19:23:41.590Z,102612.41
2023-05-18T19:26:08.906Z,102619.97
2023-05-18T19:28:35.557Z,102566.63
2023-05-18T19:31:05.318Z,102582.28
2023-05-18T19:33:32.130Z,102603.13
2023-05-18T19:35:58.591Z,102619.50
2023-05-18T19:38:25.070Z,102598.81
2023-05-18T19:40:51.497Z,102627.41
2023-05-18T19:43:17.974Z,102567.84
2023-05-18T19:45:44.505Z,102624.66
2023-05-18T19:48:12.452Z,102630.25
2023-05-18T19:50:38.956Z,102637.19
2023-05-18T19:53:05.636Z,102618.16
2023-05-18T19:55:32.634Z,102579.41
2023-05-18T19:57:59.283Z,102610.78
2023-05-18T20:00:26.443Z,102624.16
2023-05-18T20:02:53.123Z,102638.44
2023-05-18T20:05:19.754Z,102616.28
2023-05-18T20:07:46.296Z,102634.72
2023-05-18T20:10:12.849Z,102596.38
2023-05-18T20:12:40.983Z,102638.91
2023-05-18T20:15:08.695Z,102646.88
2023-05-18T20:17:36.541Z,102644.00
2023-05-18T20:20:06.084Z,102650.25
2023-05-18T20:22:32.576Z,102643.88
2023-05-18T20:25:01.111Z,102653.31
2023-05-18T20:27:28.087Z,102598.47
2023-05-18T20:29:56.280Z,102645.78
2023-05-18T20:32:22.987Z,102615.19
2023-05-18T20:34:49.572Z,102616.78
2023-05-18T20:37:16.107Z,102591.97
2023-05-18T20:39:50.253Z,102635.78
2023-05-18T20:42:21.946Z,102643.47
2023-05-18T20:44:51.227Z,102657.28
2023-05-18T20:47:21.788Z,102642.66
2023-05-18T20:49:48.533Z,102671.28
2023-05-18T20:52:15.254Z,102662.25
2023-05-18T20:54:41.777Z,102675.63
2023-05-18T20:57:08.470Z,102669.06
2023-05-18T20:59:35.007Z,102679.22
2023-05-18T21:02:01.559Z,102670.22
2023-05-18T21:04:28.267Z,102669.56
2023-05-18T21:06:54.794Z,102658.59
2023-05-18T21:09:21.543Z,102630.66
2023-05-18T21:11:48.426Z,102657.81
2023-05-18T21:14:15.479Z,102661.44
2023-05-18T21:16:41.964Z,102663.88
2023-05-18T21:19:10.988Z,102671.13
2023-05-18T21:21:37.607Z,102665.63
2023-05-18T21:24:04.173Z,102659.28
2023-05-18T21:26:30.819Z,102672.44
2023-05-18T21:28:57.593Z,102671.09
2023-05-18T21:31:24.094Z,102654.72
2023-05-18T21:33:52.702Z,102670.19
2023-05-18T21:36:33.796Z,102670.56
2023-05-18T21:39:05.474Z,102668.38
2023-05-18T21:41:35.114Z,102662.00
2023-05-18T21:44:01.731Z,102664.09
2023-05-18T21:46:28.736Z,102669.03
2023-05-18T21:48:59.726Z,102663.31
2023-05-18T21:51:26.301Z,102645.28
2023-05-18T21:53:52.810Z,102668.81
2023-05-18T21:56:19.652Z,102662.41
2023-05-18T21:58:46.308Z,102663.03
2023-05-18T22:01:13.271Z,102665.16
2023-05-18T22:03:40.352Z,102666.38
2023-05-18T22:06:07.190Z,102653.94
2023-05-18T22:08:33.602Z,102665.38
2023-05-18T22:11:00.048Z,102672.13
2023-05-18T22:13:26.722Z,102667.06
2023-05-18T22:15:53.213Z,102637.63
2023-05-18T22:18:20.988Z,102641.16
2023-05-18T22:20:47.437Z,102670.88
2023-05-18T22:23:13.947Z,102616.13
2023-05-18T22:25:40.680Z,102673.13
2023-05-18T22:28:07.186Z,102653.81
2023-05-18T22:30:33.844Z,102679.03
2023-05-18T22:33:00.561Z,102672.28
2023-05-18T22:35:27.367Z,102679.81
2023-05-18T22:37:53.807Z,102657.56
2023-05-18T22:40:20.411Z,102667.63
2023-05-18T22:42:46.896Z,102687.63
2023-05-18T22:45:13.996Z,102670.38
2023-05-18T22:47:40.501Z,102676.66
2023-05-18T22:50:07.756Z,102641.59
2023-05-18T22:52:34.860Z,102670.38
2023-05-18T22:55:01.685Z,102674.22
2023-05-18T22:57:28.173Z,102631.31
2023-05-18T22:59:54.738Z,102662.56
2023-05-18T23:02:21.169Z,102674.88
2023-05-18T23:04:47.642Z,102670.78
2023-05-18T23:07:14.164Z,102659.09
2023-05-18T23:09:40.621Z,102669.72
2023-05-18T23:12:07.613Z,102675.13
2023-05-18T23:14:34.069Z,102666.63
2023-05-18T23:17:00.821Z,102651.41
2023-05-18T23:19:27.548Z,102647.25
2023-05-18T23:21:54.475Z,102664.63
2023-05-18T23:24:21.720Z,102656.09
2023-05-18T23:26:48.606Z,102678.28
2023-05-18T23:29:15.119Z,102638.78
2023-05-18T23:31:41.571Z,102665.50
2023-05-18T23:34:08.338Z,102650.25
2023-05-18T23:36:35.164Z,102656.59
2023-05-18T23:39:02.266Z,102667.22
2023-05-18T23:41:30.771Z,102670.09
2023-05-18T23:43:58.227Z,102662.34
2023-05-18T23:46:25.426Z,102641.94
2023-05-18T23:48:52.409Z,102656.56
2023-05-18T23:51:23.007Z,102637.81
2023-05-18T23:53:51.333Z,102660.78
2023-05-18T23:56:18.284Z,102626.16
2023-05-18T23:58:46.677Z,102643.56
